createdAt,value
2017-07-30T00:02:03.411Z,23.60
2017-07-30T00:04:30.882Z,23.50
2017-07-30T00:06:58.382Z,23.50
2017-07-30T00:09:25.887Z,23.50
2017-07-30T00:11:53.376Z,23.50
2017-07-30T00:14:20.824Z,23.50
2017-07-30T00:16:48.390Z,23.50
2017-07-30T00:19:15.971Z,23.60
2017-07-30T00:21:43.523Z,23.60
2017-07-30T00:24:11.076Z,23.60
2017-07-30T00:26:38.755Z,23.60
2017-07-30T00:29:06.413Z,23.60
2017-07-30T00:31:34.497Z,23.50
2017-07-30T00:34:01.936Z,23.50
2017-07-30T00:36:29.410Z,23.40
2017-07-30T00:38:56.885Z,23.40
2017-07-30T00:41:25.106Z,23.40
2017-07-30T00:43:52.785Z,23.40
2017-07-30T00:46:20.270Z,23.30
2017-07-30T00:48:48.309Z,23.40
2017-07-30T00:51:15.877Z,23.40
2017-07-30T00:53:43.327Z,23.40
2017-07-30T00:56:10.792Z,23.40
2017-07-30T00:58:38.939Z,23.30
2017-07-30T01:01:06.994Z,23.30
2017-07-30T01:03:34.418Z,23.30
2017-07-30T01:06:01.886Z,23.40
2017-07-30T01:08:30.183Z,23.40
2017-07-30T01:10:58.367Z,23.40
2017-07-30T01:13:25.803Z,23.40
2017-07-30T01:15:53.280Z,23.40
2017-07-30T01:18:20.767Z,23.40
2017-07-30T01:20:48.206Z,23.30
2017-07-30T01:23:15.715Z,23.40
2017-07-30T01:25:43.250Z,23.30
2017-07-30T01:28:10.702Z,23.40
2017-07-30T01:30:38.202Z,23.40
2017-07-30T01:33:05.654Z,23.40
2017-07-30T01:35:33.140Z,23.40
2017-07-30T01:38:00.590Z,23.40
2017-07-30T01:40:28.026Z,23.40
2017-07-30T01:42:55.499Z,23.40
2017-07-30T01:45:22.946Z,23.40
2017-07-30T01:47:50.505Z,23.30
2017-07-30T01:50:17.974Z,23.30
2017-07-30T01:52:45.422Z,23.20
2017-07-30T01:55:12.915Z,23.30
2017-07-30T01:57:40.386Z,23.30
2017-07-30T02:00:07.845Z,23.20
2017-07-30T02:02:35.346Z,23.20
2017-07-30T02:05:02.781Z,23.20
2017-07-30T02:07:30.215Z,23.30
2017-07-30T02:09:57.677Z,23.30
2017-07-30T02:12:25.167Z,23.20
2017-07-30T02:14:52.627Z,23.30
2017-07-30T02:17:20.090Z,23.20
2017-07-30T02:19:47.549Z,23.20
2017-07-30T02:22:15.006Z,23.20
2017-07-30T02:24:42.468Z,23.20
2017-07-30T02:27:10.680Z,23.20
2017-07-30T02:29:38.163Z,23.20
2017-07-30T02:32:05.641Z,23.20
2017-07-30T02:34:33.121Z,23.20
2017-07-30T02:37:00.692Z,23.20
2017-07-30T02:39:28.171Z,23.30
2017-07-30T02:41:55.627Z,23.20
2017-07-30T02:44:23.101Z,23.30
2017-07-30T02:46:51.041Z,23.30
2017-07-30T02:49:18.563Z,23.30
2017-07-30T02:51:46.083Z,23.30
2017-07-30T02:54:13.530Z,23.30
2017-07-30T02:56:41.035Z,23.30
2017-07-30T02:59:08.527Z,23.20
2017-07-30T03:01:36.743Z,23.30
2017-07-30T03:04:04.227Z,23.20
2017-07-30T03:06:32.488Z,23.20
2017-07-30T03:08:59.970Z,23.20
2017-07-30T03:11:27.471Z,23.30
2017-07-30T03:13:54.958Z,23.30
2017-07-30T03:16:22.409Z,23.40
2017-07-30T03:18:49.918Z,23.40
2017-07-30T03:21:17.367Z,23.50
2017-07-30T03:23:44.888Z,23.50
2017-07-30T03:26:12.377Z,23.50
2017-07-30T03:28:39.823Z,23.40
2017-07-30T03:31:07.287Z,23.40
2017-07-30T03:33:34.737Z,23.40
2017-07-30T03:36:02.195Z,23.40
2017-07-30T03:38:29.642Z,23.30
2017-07-30T03:40:57.124Z,23.30
2017-07-30T03:43:25.391Z,23.10
2017-07-30T03:45:52.846Z,23.10
2017-07-30T03:48:20.289Z,23.10
2017-07-30T03:50:48.082Z,23.00
2017-07-30T03:53:15.549Z,23.00
2017-07-30T03:55:43.006Z,22.90
2017-07-30T03:58:10.543Z,23.00
2017-07-30T04:00:38.754Z,23.00
2017-07-30T04:03:06.306Z,22.90
2017-07-30T04:05:33.759Z,23.00
2017-07-30T04:08:01.291Z,22.90
2017-07-30T04:10:28.771Z,22.90
2017-07-30T04:12:57.004Z,22.90
2017-07-30T04:15:24.547Z,22.90
2017-07-30T04:17:52.020Z,22.90
2017-07-30T04:20:19.481Z,22.90
2017-07-30T04:22:46.973Z,22.90
2017-07-30T04:25:15.146Z,22.80
2017-07-30T04:27:43.362Z,22.80
2017-07-30T04:30:10.842Z,22.80
2017-07-30T04:32:38.307Z,22.80
2017-07-30T04:35:05.762Z,22.90
2017-07-30T04:37:33.223Z,22.90
2017-07-30T04:40:00.726Z,22.80
2017-07-30T04:42:28.183Z,22.80
2017-07-30T04:44:55.686Z,22.90
2017-07-30T04:47:24.824Z,22.90
2017-07-30T04:49:52.502Z,22.90
2017-07-30T04:52:19.937Z,22.90
2017-07-30T04:54:47.411Z,22.90
2017-07-30T04:57:14.876Z,22.90
2017-07-30T04:59:42.348Z,22.90
2017-07-30T05:02:09.836Z,23.10
2017-07-30T05:04:37.366Z,23.20
2017-07-30T05:07:04.869Z,23.30
2017-07-30T05:09:33.375Z,23.40
2017-07-30T05:12:02.654Z,23.60
2017-07-30T05:14:30.139Z,23.60
2017-07-30T05:16:59.043Z,23.70
2017-07-30T05:19:26.495Z,23.70
2017-07-30T05:21:53.999Z,23.80
2017-07-30T05:24:21.578Z,23.80
2017-07-30T05:26:49.029Z,23.90
2017-07-30T05:29:16.487Z,23.90
2017-07-30T05:31:43.952Z,23.90
2017-07-30T05:34:11.395Z,24.00
2017-07-30T05:36:38.881Z,23.90
2017-07-30T05:39:06.336Z,23.90
2017-07-30T05:41:33.782Z,24.10
2017-07-30T05:44:02.090Z,24.40
2017-07-30T05:46:29.697Z,24.40
2017-07-30T05:48:57.158Z,24.50
2017-07-30T05:51:24.639Z,24.50
2017-07-30T05:53:52.097Z,24.60
2017-07-30T05:56:19.587Z,24.50
2017-07-30T05:58:47.043Z,24.60
2017-07-30T06:01:14.486Z,24.60
2017-07-30T06:03:42.726Z,24.60
2017-07-30T06:06:10.224Z,24.60
2017-07-30T06:08:38.483Z,24.50
2017-07-30T06:11:06.071Z,24.50
2017-07-30T06:13:33.519Z,24.50
2017-07-30T06:16:00.980Z,24.60
2017-07-30T06:18:28.495Z,24.80
2017-07-30T06:20:56.003Z,25.70
2017-07-30T06:23:23.515Z,25.90
2017-07-30T06:25:51.605Z,27.40
2017-07-30T06:28:19.861Z,28.50
2017-07-30T06:30:47.367Z,28.50
2017-07-30T06:33:14.823Z,28.20
2017-07-30T06:35:42.417Z,28.00
2017-07-30T06:38:09.947Z,28.30
2017-07-30T06:40:37.443Z,28.20
2017-07-30T06:43:05.612Z,27.60
2017-07-30T06:45:33.166Z,27.00
2017-07-30T06:48:00.654Z,26.80
2017-07-30T06:50:28.896Z,28.50
2017-07-30T06:52:56.368Z,28.50
2017-07-30T06:55:23.938Z,29.90
2017-07-30T06:57:51.461Z,30.50
2017-07-30T07:00:18.943Z,31.00
2017-07-30T07:02:46.446Z,30.80
2017-07-30T07:05:14.651Z,30.20
2017-07-30T07:07:42.174Z,30.20
2017-07-30T07:10:10.476Z,29.40
2017-07-30T07:12:37.996Z,29.40
2017-07-30T07:15:05.562Z,29.80
2017-07-30T07:17:33.076Z,29.00
2017-07-30T07:20:00.581Z,28.90
2017-07-30T07:22:28.013Z,29.30
2017-07-30T07:24:55.711Z,29.40
2017-07-30T07:27:23.187Z,29.20
2017-07-30T07:29:50.699Z,28.80
2017-07-30T07:32:18.227Z,27.90
2017-07-30T07:34:45.710Z,27.20
2017-07-30T07:37:13.192Z,26.90
2017-07-30T07:39:40.659Z,26.40
2017-07-30T07:42:08.364Z,26.20
2017-07-30T07:44:37.296Z,25.80
2017-07-30T07:47:04.738Z,25.70
2017-07-30T07:49:32.483Z,25.80
2017-07-30T07:52:00.322Z,26.00
2017-07-30T07:54:27.840Z,26.20
2017-07-30T07:56:55.308Z,26.30
2017-07-30T07:59:23.533Z,26.40
2017-07-30T08:01:51.060Z,26.60
2017-07-30T08:04:19.330Z,26.40
2017-07-30T08:06:47.091Z,26.40
2017-07-30T08:09:15.966Z,26.90
2017-07-30T08:11:44.337Z,27.70
2017-07-30T08:14:11.867Z,28.40
2017-07-30T08:16:39.879Z,28.80
2017-07-30T08:19:08.166Z,30.40
2017-07-30T08:21:35.659Z,30.40
2017-07-30T08:24:03.132Z,31.00
2017-07-30T08:26:30.790Z,31.00
2017-07-30T08:28:58.359Z,30.60
2017-07-30T08:31:25.907Z,29.90
2017-07-30T08:33:53.476Z,30.10
2017-07-30T08:36:20.956Z,30.50
2017-07-30T08:38:48.388Z,31.40
2017-07-30T08:41:18.997Z,31.30
2017-07-30T08:43:46.483Z,30.90
2017-07-30T08:46:28.847Z,29.80
2017-07-30T08:48:56.332Z,29.30
2017-07-30T08:51:24.858Z,29.70
2017-07-30T08:53:53.125Z,30.20
2017-07-30T08:56:20.567Z,30.10
2017-07-30T08:58:48.020Z,29.60
2017-07-30T09:01:15.636Z,29.10
2017-07-30T09:03:43.245Z,28.30
2017-07-30T09:06:11.574Z,27.90
2017-07-30T09:08:39.846Z,27.40
2017-07-30T09:11:07.365Z,27.50
2017-07-30T09:13:35.020Z,27.80
2017-07-30T09:16:02.679Z,28.50
2017-07-30T09:18:30.139Z,29.40
2017-07-30T09:20:57.687Z,29.60
2017-07-30T09:23:25.160Z,29.70
2017-07-30T09:25:52.690Z,30.40
2017-07-30T09:28:22.011Z,30.50
2017-07-30T09:30:49.611Z,30.00
2017-07-30T09:33:17.864Z,28.80
2017-07-30T09:35:46.436Z,28.50
2017-07-30T09:38:14.890Z,28.50
2017-07-30T09:40:42.611Z,28.60
2017-07-30T09:43:10.345Z,28.70
2017-07-30T09:45:37.913Z,29.40
2017-07-30T09:48:09.370Z,30.40
2017-07-30T09:50:44.764Z,31.20
2017-07-30T09:53:13.078Z,31.30
2017-07-30T09:55:41.637Z,31.30
2017-07-30T09:58:09.182Z,31.20
2017-07-30T10:00:36.670Z,31.10
2017-07-30T10:03:04.181Z,30.60
2017-07-30T10:05:31.806Z,31.20
2017-07-30T10:07:59.327Z,31.60
2017-07-30T10:10:26.852Z,32.00
2017-07-30T10:12:54.400Z,32.30
2017-07-30T10:15:23.507Z,33.10
2017-07-30T10:17:51.219Z,33.00
2017-07-30T10:20:18.779Z,32.40
2017-07-30T10:22:46.538Z,32.50
2017-07-30T10:25:14.144Z,32.40
2017-07-30T10:27:41.676Z,32.20
2017-07-30T10:30:09.216Z,31.30
2017-07-30T10:32:36.873Z,30.30
2017-07-30T10:35:04.582Z,30.20
2017-07-30T10:37:32.031Z,29.80
2017-07-30T10:39:59.619Z,29.70
2017-07-30T10:42:28.108Z,29.30
2017-07-30T10:44:55.944Z,29.30
2017-07-30T10:47:23.535Z,29.10
2017-07-30T10:49:51.885Z,29.00
2017-07-30T10:52:19.924Z,28.80
2017-07-30T10:54:47.427Z,29.00
2017-07-30T10:57:16.854Z,29.20
2017-07-30T10:59:44.639Z,29.40
2017-07-30T11:02:13.616Z,29.50
2017-07-30T11:04:41.836Z,29.20
2017-07-30T11:07:09.360Z,29.50
2017-07-30T11:09:37.002Z,29.60
2017-07-30T11:12:04.759Z,29.70
2017-07-30T11:14:32.281Z,29.70
2017-07-30T11:16:59.829Z,29.60
2017-07-30T11:19:27.368Z,29.30
2017-07-30T11:21:55.579Z,29.00
2017-07-30T11:24:24.700Z,29.10
2017-07-30T11:29:30.411Z,29.40
2017-07-30T11:31:58.168Z,29.30
2017-07-30T11:34:26.837Z,29.00
2017-07-30T11:36:55.347Z,28.70
2017-07-30T11:39:23.732Z,28.60
2017-07-30T11:41:51.257Z,28.70
2017-07-30T11:44:20.151Z,28.70
2017-07-30T11:46:48.909Z,28.70
2017-07-30T11:49:18.918Z,28.70
2017-07-30T11:51:47.346Z,28.70
2017-07-30T11:54:16.131Z,28.60
2017-07-30T11:56:45.258Z,28.60
2017-07-30T11:59:17.360Z,28.40
2017-07-30T12:01:45.477Z,28.30
2017-07-30T12:04:15.199Z,28.00
2017-07-30T12:06:45.004Z,28.00
2017-07-30T12:09:12.509Z,28.10
2017-07-30T12:11:40.782Z,28.10
2017-07-30T12:14:09.168Z,28.10
2017-07-30T12:16:37.494Z,28.00
2017-07-30T12:19:05.157Z,28.00
2017-07-30T12:21:32.762Z,27.80
2017-07-30T12:24:00.382Z,27.90
2017-07-30T12:26:29.696Z,27.90
2017-07-30T12:29:02.784Z,27.90
2017-07-30T12:31:31.667Z,27.90
2017-07-30T12:34:00.658Z,28.10
2017-07-30T12:36:28.771Z,28.00
2017-07-30T12:39:00.814Z,28.00
2017-07-30T12:41:30.329Z,28.10
2017-07-30T12:43:58.616Z,28.20
2017-07-30T12:46:26.196Z,28.00
2017-07-30T12:48:56.359Z,27.80
2017-07-30T12:51:24.852Z,27.80
2017-07-30T12:53:55.614Z,27.80
2017-07-30T12:56:23.785Z,28.00
2017-07-30T12:58:51.413Z,28.10
2017-07-30T13:01:19.161Z,28.00
2017-07-30T13:03:46.773Z,28.00
2017-07-30T13:06:14.318Z,28.00
2017-07-30T13:08:41.902Z,28.20
2017-07-30T13:11:09.506Z,28.20
2017-07-30T13:13:39.632Z,28.20
2017-07-30T13:16:21.736Z,28.20
2017-07-30T13:18:49.333Z,28.30
2017-07-30T13:21:17.463Z,28.40
2017-07-30T13:23:45.140Z,28.40
2017-07-30T13:26:12.684Z,28.30
2017-07-30T13:28:41.616Z,28.20
2017-07-30T13:31:09.652Z,28.10
2017-07-30T13:33:37.520Z,28.00
2017-07-30T13:36:05.280Z,27.70
2017-07-30T13:38:33.701Z,27.70
2017-07-30T13:41:01.384Z,27.70
2017-07-30T13:43:30.907Z,27.70
2017-07-30T13:45:59.307Z,27.60
2017-07-30T13:48:36.996Z,27.60
2017-07-30T13:51:11.379Z,27.70
2017-07-30T13:53:39.763Z,27.90
2017-07-30T13:56:07.295Z,27.90
2017-07-30T13:58:34.979Z,28.00
2017-07-30T14:01:03.375Z,27.90
2017-07-30T14:03:31.609Z,27.80
2017-07-30T14:05:59.231Z,28.10
2017-07-30T14:08:26.908Z,28.20
2017-07-30T14:10:57.004Z,28.20
2017-07-30T14:13:24.508Z,28.00
2017-07-30T14:15:52.840Z,27.90
2017-07-30T14:18:20.440Z,27.80
2017-07-30T14:20:47.954Z,27.80
2017-07-30T14:23:15.569Z,27.60
2017-07-30T14:25:43.952Z,27.50
2017-07-30T14:28:11.485Z,27.60
2017-07-30T14:30:39.058Z,27.60
2017-07-30T14:33:06.678Z,27.70
2017-07-30T14:35:34.252Z,27.60
2017-07-30T14:38:02.579Z,27.60
2017-07-30T14:40:30.567Z,27.50
2017-07-30T14:42:59.723Z,27.40
2017-07-30T14:45:28.359Z,27.70
2017-07-30T14:47:59.671Z,27.80
2017-07-30T14:55:46.023Z,27.70
2017-07-30T14:58:14.730Z,27.70
2017-07-30T15:00:42.246Z,27.80
2017-07-30T15:03:10.975Z,27.90
2017-07-30T15:05:39.655Z,27.90
2017-07-30T15:08:07.195Z,27.80
2017-07-30T15:10:34.678Z,27.90
2017-07-30T15:13:02.576Z,27.80
2017-07-30T15:15:30.300Z,27.70
2017-07-30T15:17:59.292Z,27.60
2017-07-30T15:20:29.351Z,27.60
2017-07-30T15:22:56.924Z,27.80
2017-07-30T15:25:25.175Z,27.90
2017-07-30T15:27:52.832Z,27.90
2017-07-30T15:30:23.380Z,27.80
2017-07-30T15:33:01.608Z,27.70
2017-07-30T15:35:30.591Z,27.60
2017-07-30T15:40:35.944Z,27.40
2017-07-30T15:43:04.595Z,27.30
2017-07-30T15:45:34.510Z,27.40
2017-07-30T15:48:02.100Z,27.40
2017-07-30T15:50:31.826Z,27.50
2017-07-30T15:55:54.241Z,27.40
2017-07-30T15:58:28.637Z,27.40
2017-07-30T16:01:03.792Z,27.40
2017-07-30T16:03:32.916Z,27.30
2017-07-30T16:06:02.726Z,27.10
2017-07-30T16:08:42.113Z,27.10
2017-07-30T16:11:10.771Z,27.10
2017-07-30T16:13:40.288Z,27.10
2017-07-30T16:16:15.770Z,27.20
2017-07-30T16:18:44.855Z,27.20
2017-07-30T16:21:12.492Z,27.30
2017-07-30T16:23:58.414Z,27.30
2017-07-30T16:26:28.777Z,27.20
2017-07-30T16:31:42.291Z,26.90
2017-07-30T16:34:10.944Z,26.90
2017-07-30T16:36:49.287Z,26.90
2017-07-30T16:39:19.052Z,26.90
2017-07-30T16:41:46.717Z,26.80
2017-07-30T16:44:17.154Z,26.60
2017-07-30T16:49:25.270Z,26.00
2017-07-30T16:54:29.664Z,25.80
2017-07-30T16:57:01.899Z,25.70
2017-07-30T16:59:31.934Z,25.60
2017-07-30T17:02:00.711Z,25.40
2017-07-30T17:04:28.202Z,25.40
2017-07-30T17:07:01.473Z,25.40
2017-07-30T17:09:31.467Z,25.30
2017-07-30T17:12:00.110Z,25.40
2017-07-30T17:14:29.083Z,25.40
2017-07-30T17:19:40.955Z,25.30
2017-07-30T17:22:09.235Z,25.20
2017-07-30T17:24:40.809Z,25.10
2017-07-30T17:27:12.915Z,25.10
2017-07-30T17:29:41.175Z,25.10
2017-07-30T17:32:08.712Z,25.10
2017-07-30T17:34:37.480Z,25.20
2017-07-30T17:37:06.119Z,25.10
2017-07-30T17:39:33.768Z,25.10
2017-07-30T17:42:02.881Z,25.10
2017-07-30T17:44:31.271Z,25.10
2017-07-30T17:47:01.331Z,25.20
2017-07-30T17:49:29.034Z,25.10
2017-07-30T17:51:57.973Z,25.00
2017-07-30T17:54:25.443Z,24.90
2017-07-30T17:56:56.013Z,24.80
2017-07-30T17:59:23.715Z,24.80
2017-07-30T18:01:51.639Z,24.70
2017-07-30T18:04:20.352Z,24.60
2017-07-30T18:06:48.050Z,24.60
2017-07-30T18:09:15.693Z,24.50
2017-07-30T18:11:43.740Z,24.50
2017-07-30T18:14:11.558Z,24.40
2017-07-30T18:16:39.695Z,24.40
2017-07-30T18:19:07.931Z,24.30
2017-07-30T18:21:35.684Z,24.10
2017-07-30T18:24:23.706Z,24.10
2017-07-30T18:26:54.099Z,24.00
2017-07-30T18:29:24.793Z,23.80
2017-07-30T18:32:07.128Z,23.80
2017-07-30T18:34:39.401Z,23.70
2017-07-30T18:37:08.176Z,23.70
2017-07-30T18:39:35.969Z,23.70
2017-07-30T18:42:06.376Z,23.60
2017-07-30T18:47:11.600Z,23.60
2017-07-30T18:50:03.277Z,23.60
2017-07-30T18:52:33.905Z,23.50
2017-07-30T18:55:04.616Z,23.50
2017-07-30T18:57:34.038Z,23.60
2017-07-30T19:00:03.019Z,23.50
2017-07-30T19:02:30.557Z,23.40
2017-07-30T19:04:59.559Z,23.40
2017-07-30T19:07:27.068Z,23.40
2017-07-30T19:09:56.744Z,23.30
2017-07-30T19:12:26.338Z,23.10
2017-07-30T19:14:55.637Z,23.10
2017-07-30T19:17:25.354Z,23.00
2017-07-30T19:19:54.671Z,22.90
2017-07-30T19:22:30.020Z,22.90
2017-07-30T19:24:59.880Z,22.80
2017-07-30T19:27:27.448Z,22.70
2017-07-30T19:29:58.786Z,22.60
2017-07-30T19:32:27.615Z,22.50
2017-07-30T19:34:57.225Z,22.50
2017-07-30T19:37:25.752Z,22.50
2017-07-30T19:39:56.581Z,22.50
2017-07-30T19:42:28.311Z,22.50
2017-07-30T19:44:55.959Z,22.60
2017-07-30T19:47:29.055Z,22.60
2017-07-30T19:49:57.634Z,22.60
2017-07-30T19:52:26.088Z,22.60
2017-07-30T19:55:03.445Z,22.60
2017-07-30T19:57:31.211Z,22.60
2017-07-30T20:00:02.802Z,22.60
2017-07-30T20:02:30.331Z,22.60
2017-07-30T20:05:02.060Z,22.50
2017-07-30T20:07:30.716Z,22.50
2017-07-30T20:10:11.082Z,22.50
2017-07-30T20:15:21.821Z,22.50
2017-07-30T20:17:51.989Z,22.50
2017-07-30T20:20:21.413Z,22.40
2017-07-30T20:22:48.983Z,22.30
2017-07-30T20:25:20.455Z,22.20
2017-07-30T20:30:36.950Z,22.20
2017-07-30T20:33:07.275Z,22.10
2017-07-30T20:35:34.923Z,22.10
2017-07-30T20:38:03.529Z,22.00
2017-07-30T20:40:32.180Z,21.90
2017-07-30T20:42:59.801Z,21.90
2017-07-30T20:45:30.307Z,21.80
2017-07-30T20:48:00.883Z,21.80
2017-07-30T20:50:29.624Z,21.70
2017-07-30T20:53:05.410Z,21.70
2017-07-30T20:55:38.057Z,21.70
2017-07-30T20:58:07.713Z,21.70
2017-07-30T21:00:35.804Z,21.70
2017-07-30T21:03:04.889Z,21.60
2017-07-30T21:05:39.308Z,21.60
2017-07-30T21:08:07.092Z,21.60
2017-07-30T21:10:34.608Z,21.50
2017-07-30T21:13:04.819Z,21.50
2017-07-30T21:15:32.461Z,21.60
2017-07-30T21:18:04.217Z,21.60
2017-07-30T21:20:35.930Z,21.60
2017-07-30T21:23:04.085Z,21.50
2017-07-30T21:25:40.765Z,21.50
2017-07-30T21:28:12.283Z,21.50
2017-07-30T21:30:39.992Z,21.50
2017-07-30T21:33:15.490Z,21.50
2017-07-30T21:35:46.734Z,21.50
2017-07-30T21:38:14.332Z,21.50
2017-07-30T21:40:41.948Z,21.60
2017-07-30T21:43:09.791Z,21.60
2017-07-30T21:45:42.164Z,21.50
2017-07-30T21:48:10.531Z,21.50
2017-07-30T21:50:46.696Z,21.50
2017-07-30T21:53:14.271Z,21.50
2017-07-30T21:55:46.450Z,21.50
2017-07-30T21:58:13.988Z,21.50
2017-07-30T22:00:41.571Z,21.50
2017-07-30T22:03:09.027Z,21.60
2017-07-30T22:05:36.703Z,21.50
2017-07-30T22:08:04.289Z,21.50
2017-07-30T22:10:32.744Z,21.50
2017-07-30T22:13:00.291Z,21.40
2017-07-30T22:15:27.747Z,21.40
2017-07-30T22:17:55.853Z,21.40
2017-07-30T22:20:23.310Z,21.30
2017-07-30T22:22:50.805Z,21.30
2017-07-30T22:25:18.303Z,21.30
2017-07-30T22:27:45.752Z,21.30
2017-07-30T22:30:13.793Z,21.30
2017-07-30T22:32:41.342Z,21.30
2017-07-30T22:35:08.776Z,21.30
2017-07-30T22:37:36.257Z,21.40
2017-07-30T22:40:04.023Z,21.50
2017-07-30T22:42:31.503Z,21.50
2017-07-30T22:44:59.003Z,21.40
2017-07-30T22:47:26.553Z,21.40
2017-07-30T22:49:54.771Z,21.30
2017-07-30T22:52:22.335Z,21.20
2017-07-30T22:54:49.890Z,21.20
2017-07-30T22:57:17.428Z,21.20
2017-07-30T22:59:45.031Z,21.10
2017-07-30T23:02:12.507Z,21.10
2017-07-30T23:04:41.539Z,21.10
2017-07-30T23:07:09.031Z,21.10
2017-07-30T23:09:36.622Z,21.20
2017-07-30T23:12:08.971Z,21.30
2017-07-30T23:14:36.773Z,21.40
2017-07-30T23:17:08.384Z,21.30
2017-07-30T23:19:35.867Z,21.30
2017-07-30T23:22:03.367Z,21.30
2017-07-30T23:24:30.958Z,21.30
2017-07-30T23:26:58.407Z,21.20
2017-07-30T23:29:26.019Z,21.20
2017-07-30T23:31:53.479Z,21.10
2017-07-30T23:34:21.769Z,21.20
2017-07-30T23:36:49.355Z,21.10
2017-07-30T23:39:17.158Z,21.00
2017-07-30T23:41:46.490Z,21.00
2017-07-30T23:44:14.763Z,20.90
2017-07-30T23:46:43.043Z,20.70
2017-07-30T23:49:10.551Z,20.60
2017-07-30T23:54:14.815Z,20.60
2017-07-30T23:56:43.237Z,20.60
2017-07-30T23:59:12.137Z,20.60
